New England — V7HF3 — position and weather

sailwx.info

Track history (hours):
 
Tides and Currents Weather Stations Pressure Air Temp Water Temp Dewpoint Dewpoint Depression Visibility Wind Speed Wind Dir Waves Ship Positions

New England

Last reported at 2015-Mar-04 22:33 UTC. Time now 2015-Mar-06 09:02 UTC.
Position N 43°02' W 070°30'.

Length 183 m; draft 7.3 m.

Type: Tanker. MMSI: 538002220.

Date/timePositionNaut miles runAvg speedWind from/ knotsBaromVisibWave heightAir tempDewpointWater temp
2015-Mar-04 22:33N 43°02' W 070°30'  
2015-Feb-28 00:33N 43°37' W 069°57'1211.6
2015-Feb-27 23:31N 43°39' W 070°13'1 0.6
2015-Feb-27 22:14N 43°39' W 070°14'0 0.0
2015-Feb-27 18:30N 43°39' W 070°14'0 0.0
2015-Feb-27 17:30N 43°39' W 070°14'0 0.0
2015-Feb-27 16:29N 43°39' W 070°14'0 0.0
2015-Feb-27 15:11N 43°39' W 070°14'0 0.0
2015-Feb-27 14:22N 43°39' W 070°14'2 1.9
2015-Feb-27 13:33N 43°38' W 070°16'0 0.0
2015-Feb-26 10:33N 43°39' W 070°16'1 0.6
2015-Feb-26 09:23N 43°38' W 070°17'0 0.0
2015-Feb-26 08:12N 43°38' W 070°17'0 0.0
2015-Feb-26 07:22N 43°38' W 070°17'0 0.0
2015-Feb-26 06:28N 43°38' W 070°17'0 0.0
2015-Feb-26 05:21N 43°38' W 070°17'0 0.0
2015-Feb-26 04:27N 43°38' W 070°17'0 0.0
2015-Feb-26 03:32N 43°38' W 070°17'3 0.2
2015-Feb-25 15:17N 43°39' W 070°13'0 0.1
2015-Feb-25 14:33N 43°39' W 070°13'1 0.8
2015-Feb-25 13:33N 43°39' W 070°13'7 7.0
2015-Feb-25 12:33N 43°37' W 070°03'  
Track history (hours):
 
Tides and Currents Weather Stations Pressure Air Temp Water Temp Dewpoint Dewpoint Depression Visibility Wind Speed Wind Dir Waves Ship Positions

New England

Last reported at 2015-Mar-04 22:33 UTC. Time now 2015-Mar-06 09:02 UTC.
Position N 43°02' W 070°30'.

Length 183 m; draft 7.3 m.

Type: Tanker. MMSI: 538002220.

Date/timePositionNaut miles runAvg speedWind from/ knotsBaromVisibWave heightAir tempDewpointWater temp
2015-Mar-04 22:33N 43°02' W 070°30'  
2015-Feb-28 00:33N 43°37' W 069°57'1211.6
2015-Feb-27 23:31N 43°39' W 070°13'1 0.6
2015-Feb-27 22:14N 43°39' W 070°14'0 0.0
2015-Feb-27 18:30N 43°39' W 070°14'0 0.0
2015-Feb-27 17:30N 43°39' W 070°14'0 0.0
2015-Feb-27 16:29N 43°39' W 070°14'0 0.0
2015-Feb-27 15:11N 43°39' W 070°14'0 0.0
2015-Feb-27 14:22N 43°39' W 070°14'2 1.9
2015-Feb-27 13:33N 43°38' W 070°16'0 0.0
2015-Feb-26 10:33N 43°39' W 070°16'1 0.6
2015-Feb-26 09:23N 43°38' W 070°17'0 0.0
2015-Feb-26 08:12N 43°38' W 070°17'0 0.0
2015-Feb-26 07:22N 43°38' W 070°17'0 0.0
2015-Feb-26 06:28N 43°38' W 070°17'0 0.0
2015-Feb-26 05:21N 43°38' W 070°17'0 0.0
2015-Feb-26 04:27N 43°38' W 070°17'0 0.0
2015-Feb-26 03:32N 43°38' W 070°17'3 0.2
2015-Feb-25 15:17N 43°39' W 070°13'0 0.1
2015-Feb-25 14:33N 43°39' W 070°13'1 0.8
2015-Feb-25 13:33N 43°39' W 070°13'7 7.0
2015-Feb-25 12:33N 43°37' W 070°03'  

Dump ship's entire track history